createdAt,value
2022-11-07T00:01:21.356Z,15.65
2022-11-07T00:03:48.662Z,15.77
2022-11-07T00:06:15.428Z,15.48
2022-11-07T00:08:41.948Z,17.77
2022-11-07T00:11:08.557Z,16.00
2022-11-07T00:13:35.063Z,15.80
2022-11-07T00:16:03.346Z,16.27
2022-11-07T00:18:30.452Z,18.48
2022-11-07T00:21:01.420Z,19.23
2022-11-07T00:23:27.949Z,17.05
2022-11-07T00:25:54.420Z,17.08
2022-11-07T00:28:20.974Z,19.20
2022-11-07T00:30:47.597Z,19.48
2022-11-07T00:33:14.436Z,18.92
2022-11-07T00:35:42.656Z,24.42
2022-11-07T00:38:09.252Z,29.15
2022-11-07T00:40:35.789Z,23.58
2022-11-07T00:43:02.271Z,21.40
2022-11-07T00:45:28.783Z,19.95
2022-11-07T00:47:55.254Z,18.58
2022-11-07T00:50:21.828Z,19.38
2022-11-07T00:52:48.333Z,17.67
2022-11-07T00:55:15.111Z,19.23
2022-11-07T00:57:41.578Z,19.13
2022-11-07T01:00:08.786Z,18.40
2022-11-07T01:02:35.374Z,19.02
2022-11-07T01:05:10.672Z,17.77
2022-11-07T01:07:37.964Z,18.00
2022-11-07T01:10:06.778Z,18.45
2022-11-07T01:12:34.609Z,17.85
2022-11-07T01:15:02.701Z,17.05
2022-11-07T01:17:29.212Z,17.77
2022-11-07T01:19:55.690Z,17.45
2022-11-07T01:22:22.159Z,18.20
2022-11-07T01:24:48.729Z,17.35
2022-11-07T01:27:15.209Z,16.77
2022-11-07T01:29:41.719Z,16.55
2022-11-07T01:32:08.205Z,17.88
2022-11-07T01:34:34.697Z,17.10
2022-11-07T01:37:01.327Z,17.95
2022-11-07T01:39:30.024Z,17.25
2022-11-07T01:41:56.537Z,18.67
2022-11-07T01:44:23.161Z,17.85
2022-11-07T01:46:50.132Z,18.00
2022-11-07T01:49:28.407Z,16.88
2022-11-07T01:52:06.269Z,17.88
2022-11-07T01:54:41.544Z,21.23
2022-11-07T01:57:14.204Z,22.65
2022-11-07T01:59:41.274Z,20.83
2022-11-07T02:02:09.227Z,18.02
2022-11-07T02:04:36.572Z,21.10
2022-11-07T02:07:18.365Z,20.45
2022-11-07T02:09:46.053Z,18.52
2022-11-07T02:12:14.438Z,17.38
2022-11-07T02:14:43.200Z,15.68
2022-11-07T02:17:11.198Z,16.25
2022-11-07T02:19:44.407Z,16.58
2022-11-07T02:22:29.932Z,16.85
2022-11-07T02:24:59.994Z,16.52
2022-11-07T02:30:17.313Z,15.38
2022-11-07T02:32:44.459Z,15.33
2022-11-07T02:35:42.973Z,17.40
2022-11-07T02:38:15.712Z,14.32
2022-11-07T02:40:44.564Z,16.17
2022-11-07T02:43:13.604Z,14.65
2022-11-07T02:45:43.517Z,14.07
2022-11-07T02:48:10.341Z,13.63
2022-11-07T02:50:36.874Z,14.32
2022-11-07T02:53:03.474Z,15.63
2022-11-07T02:55:29.950Z,14.50
2022-11-07T02:57:56.471Z,13.73
2022-11-07T03:00:22.935Z,13.63
2022-11-07T03:02:49.919Z,12.95
2022-11-07T03:05:18.871Z,13.93
2022-11-07T03:07:47.601Z,13.15
2022-11-07T03:10:15.181Z,13.43
2022-11-07T03:12:42.084Z,14.75
2022-11-07T03:15:09.897Z,13.70
2022-11-07T03:17:36.431Z,13.63
2022-11-07T03:20:03.942Z,13.70
2022-11-07T03:22:30.412Z,13.10
2022-11-07T03:24:56.903Z,14.65
2022-11-07T03:27:23.403Z,12.32
2022-11-07T03:29:49.895Z,11.80
2022-11-07T03:32:16.576Z,14.48
2022-11-07T03:34:43.145Z,13.20
2022-11-07T03:37:09.614Z,12.85
2022-11-07T03:39:36.140Z,15.32
2022-11-07T03:42:02.758Z,14.30
2022-11-07T03:44:29.245Z,14.43
2022-11-07T03:46:55.704Z,17.70
2022-11-07T03:49:22.200Z,15.45
2022-11-07T03:51:48.657Z,15.05
2022-11-07T03:54:15.110Z,14.43
2022-11-07T03:56:41.665Z,19.58
2022-11-07T03:59:08.139Z,18.67
2022-11-07T04:01:34.764Z,16.58
2022-11-07T04:04:01.313Z,14.20
2022-11-07T04:06:27.806Z,16.02
2022-11-07T04:08:54.303Z,15.93
2022-11-07T04:11:39.167Z,15.90
2022-11-07T04:14:23.906Z,16.05
2022-11-07T04:17:08.677Z,16.83
2022-11-07T04:19:35.143Z,14.93
2022-11-07T04:22:01.677Z,15.48
2022-11-07T04:24:28.124Z,15.93
2022-11-07T04:27:13.137Z,14.07
2022-11-07T04:29:39.767Z,13.25
2022-11-07T04:32:06.304Z,14.18
2022-11-07T04:34:32.800Z,14.45
2022-11-07T04:36:59.299Z,14.55
2022-11-07T04:39:25.780Z,15.63
2022-11-07T04:41:52.290Z,13.98
2022-11-07T04:44:18.766Z,14.13
2022-11-07T04:46:45.282Z,15.57
2022-11-07T04:49:15.126Z,15.35
2022-11-07T04:51:43.318Z,13.27
2022-11-07T04:54:13.673Z,15.98
2022-11-07T04:56:40.832Z,14.23
2022-11-07T04:59:08.234Z,15.45
2022-11-07T05:01:34.800Z,14.88
2022-11-07T05:04:01.370Z,14.00
2022-11-07T05:06:28.040Z,13.05
2022-11-07T05:08:54.547Z,15.23
2022-11-07T05:11:21.004Z,13.93
2022-11-07T05:13:47.505Z,13.95
2022-11-07T05:16:19.521Z,14.35
2022-11-07T05:18:46.174Z,18.35
2022-11-07T05:21:12.808Z,17.40
2022-11-07T05:23:39.401Z,19.27
2022-11-07T05:26:05.942Z,19.00
2022-11-07T05:28:38.654Z,15.63
2022-11-07T05:31:08.049Z,14.23
2022-11-07T05:33:35.586Z,15.15
2022-11-07T05:36:16.652Z,18.17
2022-11-07T05:38:45.523Z,15.32
2022-11-07T05:41:13.136Z,18.50
2022-11-07T05:43:40.062Z,15.75
2022-11-07T05:46:07.023Z,13.07
2022-11-07T05:48:33.914Z,12.80
2022-11-07T05:51:00.658Z,13.05
2022-11-07T05:53:27.912Z,12.20
2022-11-07T05:55:55.127Z,12.85
2022-11-07T05:58:21.945Z,13.77
2022-11-07T06:00:48.866Z,11.35
2022-11-07T06:03:16.815Z,11.52
2022-11-07T06:05:44.242Z,11.07
2022-11-07T06:08:13.732Z,10.90
2022-11-07T06:10:42.037Z,11.50
2022-11-07T06:13:12.258Z,11.65
2022-11-07T06:15:40.143Z,11.10
2022-11-07T06:18:14.648Z,11.70
2022-11-07T06:20:41.214Z,11.57
2022-11-07T06:23:07.691Z,10.52
2022-11-07T06:25:35.655Z,11.15
2022-11-07T06:28:04.973Z,11.75
2022-11-07T06:30:32.101Z,10.90
2022-11-07T06:33:04.090Z,13.68
2022-11-07T06:35:31.242Z,23.70
2022-11-07T06:38:11.419Z,27.63
2022-11-07T06:48:11.166Z,13.02
2022-11-07T06:50:56.942Z,11.70
2022-11-07T06:54:13.803Z,12.68
2022-11-07T06:56:40.347Z,12.27
2022-11-07T06:59:06.957Z,13.23
2022-11-07T07:01:33.653Z,11.45
2022-11-07T07:04:00.870Z,13.25
2022-11-07T07:06:36.142Z,12.73
2022-11-07T07:27:37.215Z,10.48
2022-11-07T07:34:54.046Z,12.00
2022-11-07T07:37:20.506Z,9.93
2022-11-07T07:39:46.981Z,13.32
2022-11-07T07:42:13.435Z,7.60
2022-11-07T07:44:40.136Z,7.18
2022-11-07T07:47:11.012Z,7.82
2022-11-07T07:50:18.180Z,7.93
2022-11-07T07:56:31.227Z,7.20
2022-11-07T07:58:57.755Z,6.65
2022-11-07T08:01:24.284Z,6.10
2022-11-07T08:04:01.359Z,5.18
2022-11-07T08:06:29.166Z,6.85
2022-11-07T08:08:56.390Z,7.20
2022-11-07T08:11:27.713Z,5.70
2022-11-07T08:13:58.375Z,6.75
2022-11-07T08:16:27.496Z,6.60
2022-11-07T08:18:53.958Z,7.35
2022-11-07T08:21:20.462Z,6.35
2022-11-07T08:23:47.523Z,5.70
2022-11-07T08:26:14.033Z,6.25
2022-11-07T08:28:40.579Z,6.38
2022-11-07T08:31:10.493Z,6.90
2022-11-07T08:36:20.758Z,8.75
2022-11-07T08:38:47.237Z,7.60
2022-11-07T08:41:16.251Z,5.65
2022-11-07T08:43:46.477Z,4.90
2022-11-07T08:46:13.230Z,4.93
2022-11-07T08:48:40.425Z,5.38
2022-11-07T08:51:09.480Z,4.30
2022-11-07T08:53:35.972Z,4.15
2022-11-07T08:56:04.833Z,2.63
2022-11-07T08:58:31.468Z,2.50
2022-11-07T09:01:00.999Z,2.20
2022-11-07T09:06:14.302Z,1.33
2022-11-07T09:08:41.106Z,0.90
2022-11-07T09:11:19.509Z,1.42
2022-11-07T09:13:49.225Z,1.75
2022-11-07T09:16:19.294Z,2.25
2022-11-07T09:26:14.367Z,1.40
2022-11-07T09:28:40.895Z,1.38
2022-11-07T09:35:43.933Z,0.88
2022-11-07T09:46:21.211Z,0.98
2022-11-07T09:48:55.802Z,2.38
2022-11-07T09:55:55.054Z,2.25
2022-11-07T10:14:19.166Z,1.50
2022-11-07T10:40:18.289Z,1.33
2022-11-07T10:42:47.198Z,1.38
2022-11-07T10:45:15.413Z,0.98
2022-11-07T10:51:42.996Z,2.45
2022-11-07T11:02:29.421Z,1.17
2022-11-07T11:05:33.091Z,1.60
2022-11-07T11:16:32.333Z,1.52
2022-11-07T11:19:25.456Z,2.03
2022-11-07T11:21:54.323Z,0.77
2022-11-07T11:24:29.664Z,1.83
2022-11-07T11:27:04.932Z,1.48
2022-11-07T11:30:11.815Z,3.22
2022-11-07T11:32:45.693Z,2.28
2022-11-07T11:35:48.506Z,1.38
2022-11-07T11:50:09.675Z,1.15
2022-11-07T11:52:36.262Z,1.42
2022-11-07T11:55:17.902Z,1.08
2022-11-07T11:57:47.628Z,1.50
2022-11-07T12:00:19.914Z,1.67
2022-11-07T12:03:14.285Z,1.10
2022-11-07T12:06:15.735Z,0.80
2022-11-07T12:12:46.465Z,1.08
2022-11-07T12:15:18.645Z,1.77
2022-11-07T12:18:30.146Z,1.40
2022-11-07T12:21:25.060Z,0.75
2022-11-07T12:23:54.225Z,0.63
2022-11-07T12:26:58.349Z,1.33
2022-11-07T12:29:46.870Z,0.73
2022-11-07T12:32:48.179Z,1.65
2022-11-07T12:35:20.664Z,2.17
2022-11-07T12:38:02.651Z,1.10
2022-11-07T12:40:51.938Z,2.55
2022-11-07T12:43:50.593Z,2.50
2022-11-07T12:46:35.731Z,0.75
2022-11-07T12:49:35.724Z,1.65
2022-11-07T12:52:49.978Z,5.18
2022-11-07T12:55:30.614Z,2.72
2022-11-07T12:57:59.200Z,1.77
2022-11-07T13:00:29.907Z,2.00
2022-11-07T13:03:35.240Z,1.23
2022-11-07T13:06:15.448Z,1.45
2022-11-07T13:09:26.841Z,1.52
2022-11-07T13:12:07.871Z,0.95
2022-11-07T13:14:40.110Z,3.47
2022-11-07T13:17:17.399Z,3.22
2022-11-07T13:19:46.884Z,2.92
2022-11-07T13:22:14.196Z,2.45
2022-11-07T13:25:16.069Z,1.42
2022-11-07T13:27:46.969Z,2.03
2022-11-07T13:30:13.478Z,2.33
2022-11-07T13:32:59.437Z,3.55
2022-11-07T13:35:25.874Z,2.55
2022-11-07T13:37:58.353Z,2.08
2022-11-07T13:40:33.320Z,2.15
2022-11-07T13:43:28.247Z,0.98
2022-11-07T13:45:59.033Z,1.52
2022-11-07T13:48:40.796Z,1.98
2022-11-07T13:51:15.222Z,1.70
2022-11-07T13:54:12.676Z,4.75
2022-11-07T13:56:44.203Z,2.65
2022-11-07T13:59:36.877Z,0.98
2022-11-07T14:02:04.491Z,1.42
2022-11-07T14:04:39.821Z,1.00
2022-11-07T14:07:11.658Z,1.45
2022-11-07T14:09:39.020Z,2.72
2022-11-07T14:12:05.714Z,1.90
2022-11-07T14:14:32.257Z,3.97
2022-11-07T14:17:00.639Z,4.22
2022-11-07T14:19:28.384Z,5.03
2022-11-07T14:21:55.748Z,1.65
2022-11-07T14:24:29.019Z,2.97
2022-11-07T14:27:08.673Z,2.40
2022-11-07T14:29:35.240Z,4.68
2022-11-07T14:32:05.340Z,4.53
2022-11-07T14:34:35.209Z,4.07
2022-11-07T14:37:06.235Z,2.53
2022-11-07T14:39:33.611Z,1.50
2022-11-07T14:42:02.570Z,1.42
2022-11-07T14:44:53.715Z,5.22
2022-11-07T14:47:27.086Z,5.68
2022-11-07T14:49:54.528Z,2.28
2022-11-07T14:52:32.888Z,4.47
2022-11-07T14:55:20.490Z,3.03
2022-11-07T14:57:47.864Z,3.28
2022-11-07T15:00:17.827Z,2.30
2022-11-07T15:05:27.446Z,4.60
2022-11-07T15:07:55.292Z,2.17
2022-11-07T15:10:29.499Z,4.68
2022-11-07T15:13:33.590Z,3.08
2022-11-07T15:16:07.866Z,22.38
2022-11-07T15:18:39.777Z,5.15
2022-11-07T15:21:06.968Z,3.42
2022-11-07T15:23:35.172Z,3.35
2022-11-07T15:26:07.753Z,6.00
2022-11-07T15:28:53.872Z,2.22
2022-11-07T15:31:22.768Z,3.40
2022-11-07T15:33:49.712Z,4.90
2022-11-07T15:36:16.976Z,6.70
2022-11-07T15:38:43.600Z,9.30
2022-11-07T15:41:11.702Z,6.32
2022-11-07T15:43:38.583Z,7.95
2022-11-07T15:46:18.261Z,6.97
2022-11-07T15:48:44.778Z,7.75
2022-11-07T15:51:11.489Z,4.32
2022-11-07T15:53:37.993Z,5.90
2022-11-07T15:56:06.008Z,6.43
2022-11-07T15:58:32.453Z,4.07
2022-11-07T16:00:59.063Z,7.10
2022-11-07T16:03:27.681Z,5.10
2022-11-07T16:05:58.413Z,7.32
2022-11-07T16:08:25.220Z,4.68
2022-11-07T16:10:54.877Z,5.43
2022-11-07T16:13:21.408Z,4.18
2022-11-07T16:15:52.877Z,4.60
2022-11-07T16:18:21.504Z,5.70
2022-11-07T16:20:49.249Z,5.40
2022-11-07T16:23:16.627Z,6.22
2022-11-07T16:25:46.667Z,6.47
2022-11-07T16:30:48.190Z,6.60
2022-11-07T16:33:14.642Z,9.93
2022-11-07T16:35:41.224Z,13.15
2022-11-07T16:38:16.685Z,8.80
2022-11-07T16:40:43.846Z,11.55
2022-11-07T16:43:10.326Z,9.27
2022-11-07T16:45:41.195Z,10.98
2022-11-07T16:48:23.133Z,9.52
2022-11-07T16:50:49.672Z,7.30
2022-11-07T16:53:16.668Z,9.40
2022-11-07T16:55:53.348Z,13.77
2022-11-07T16:58:26.169Z,11.38
2022-11-07T17:00:53.863Z,10.73
2022-11-07T17:03:20.574Z,6.50
2022-11-07T17:05:47.397Z,5.20
2022-11-07T17:08:23.534Z,4.55
2022-11-07T17:10:50.642Z,5.22
2022-11-07T17:13:17.202Z,8.85
2022-11-07T17:15:44.330Z,9.02
2022-11-07T17:18:19.193Z,7.72
2022-11-07T17:20:51.410Z,8.07
2022-11-07T17:23:18.745Z,5.20
2022-11-07T17:25:50.814Z,9.00
2022-11-07T17:28:17.883Z,18.73
2022-11-07T17:30:44.677Z,28.27
2022-11-07T17:33:11.217Z,32.15
2022-11-07T17:35:38.854Z,22.73
2022-11-07T17:38:05.943Z,20.45
2022-11-07T17:40:34.200Z,15.63
2022-11-07T17:43:00.998Z,15.60
2022-11-07T17:45:27.873Z,12.25
2022-11-07T17:47:54.649Z,9.57
2022-11-07T17:50:22.457Z,7.32
2022-11-07T17:52:52.290Z,7.85
2022-11-07T17:55:20.179Z,5.07
2022-11-07T17:57:46.762Z,6.28
2022-11-07T18:00:17.594Z,7.30
2022-11-07T18:02:45.102Z,7.20
2022-11-07T18:05:17.477Z,7.97
2022-11-07T18:07:44.956Z,6.53
2022-11-07T18:10:13.464Z,7.13
2022-11-07T18:12:40.048Z,9.13
2022-11-07T18:15:07.277Z,8.25
2022-11-07T18:17:35.538Z,20.95
2022-11-07T18:20:04.091Z,16.85
2022-11-07T18:22:30.642Z,13.52
2022-11-07T18:24:57.302Z,30.17
2022-11-07T18:27:23.909Z,42.65
2022-11-07T18:29:50.438Z,22.75
2022-11-07T18:32:17.451Z,15.18
2022-11-07T18:34:44.089Z,7.55
2022-11-07T18:37:10.544Z,5.60
2022-11-07T18:39:37.169Z,8.77
2022-11-07T18:42:03.711Z,5.47
2022-11-07T18:44:30.217Z,4.53
2022-11-07T18:46:56.665Z,8.60
2022-11-07T18:49:24.450Z,3.20
2022-11-07T18:51:50.998Z,3.80
2022-11-07T18:54:17.544Z,5.53
2022-11-07T18:56:44.141Z,8.02
2022-11-07T18:59:11.502Z,7.82
2022-11-07T19:01:38.457Z,10.38
2022-11-07T19:04:06.714Z,22.90
2022-11-07T19:06:34.147Z,35.72
2022-11-07T19:09:00.992Z,17.50
2022-11-07T19:11:31.028Z,8.52
2022-11-07T19:14:00.900Z,7.68
2022-11-07T19:16:28.173Z,7.65
2022-11-07T19:18:54.700Z,7.85
2022-11-07T19:21:23.381Z,7.57
2022-11-07T19:23:50.319Z,7.88
2022-11-07T19:26:19.107Z,5.45
2022-11-07T19:28:45.974Z,4.30
2022-11-07T19:31:13.168Z,5.13
2022-11-07T19:33:41.189Z,6.60
2022-11-07T19:36:13.745Z,5.13
2022-11-07T19:38:40.260Z,5.40
2022-11-07T19:41:08.018Z,7.18
2022-11-07T19:43:35.243Z,4.50
2022-11-07T19:46:10.485Z,4.07
2022-11-07T19:48:37.024Z,9.30
2022-11-07T19:51:21.666Z,8.15
2022-11-07T19:53:55.826Z,9.00
2022-11-07T19:56:24.167Z,7.65
2022-11-07T19:58:50.919Z,8.23
2022-11-07T20:01:21.143Z,9.85
2022-11-07T20:03:49.931Z,8.02
2022-11-07T20:06:19.654Z,8.80
2022-11-07T20:08:46.520Z,6.80
2022-11-07T20:11:14.907Z,8.77
2022-11-07T20:13:45.208Z,10.43
2022-11-07T20:16:12.231Z,10.65
2022-11-07T20:18:40.201Z,12.15
2022-11-07T20:21:12.772Z,12.85
2022-11-07T20:23:40.873Z,12.50
2022-11-07T20:26:09.480Z,19.63
2022-11-07T20:28:36.726Z,24.55
2022-11-07T20:31:30.744Z,22.23
2022-11-07T20:33:59.206Z,17.70
2022-11-07T20:36:26.610Z,18.13
2022-11-07T20:38:56.182Z,16.05
2022-11-07T20:41:23.701Z,14.52
2022-11-07T20:43:57.923Z,13.20
2022-11-07T20:46:24.533Z,11.98
2022-11-07T20:48:51.340Z,12.63
2022-11-07T20:51:20.716Z,12.82
2022-11-07T20:53:50.307Z,8.93
2022-11-07T20:58:46.440Z,6.18
2022-11-07T21:01:21.733Z,9.68
2022-11-07T21:03:49.346Z,9.45
2022-11-07T21:06:16.965Z,9.15
2022-11-07T21:08:46.113Z,8.55
2022-11-07T21:11:14.763Z,9.70
2022-11-07T21:13:45.392Z,7.45
2022-11-07T21:16:14.698Z,8.60
2022-11-07T21:18:41.255Z,6.85
2022-11-07T21:21:16.463Z,7.50
2022-11-07T21:23:43.458Z,7.30
2022-11-07T21:26:14.083Z,6.25
2022-11-07T21:28:41.040Z,8.15
2022-11-07T21:31:11.573Z,7.97
2022-11-07T21:33:38.883Z,11.05
2022-11-07T21:36:10.706Z,9.63
2022-11-07T21:38:37.773Z,9.02
2022-11-07T21:41:08.586Z,9.23
2022-11-07T21:43:35.844Z,10.65
2022-11-07T21:46:09.221Z,12.10
2022-11-07T21:48:36.826Z,10.15
2022-11-07T21:51:08.376Z,10.35
2022-11-07T21:53:37.752Z,12.93
2022-11-07T21:56:05.628Z,16.02
2022-11-07T21:58:32.298Z,25.00
2022-11-07T22:01:06.051Z,21.92
2022-11-07T22:04:03.630Z,20.65
2022-11-07T22:06:20.389Z,24.38
2022-11-07T22:08:48.339Z,26.23
2022-11-07T22:11:16.465Z,21.83
2022-11-07T22:13:43.482Z,21.42
2022-11-07T22:16:21.198Z,19.95
2022-11-07T22:18:48.907Z,15.10
2022-11-07T22:21:18.238Z,17.00
2022-11-07T22:23:44.734Z,23.60
2022-11-07T22:26:16.901Z,28.63
2022-11-07T22:28:46.110Z,29.45
2022-11-07T22:31:20.880Z,28.70
2022-11-07T22:33:48.442Z,25.25
2022-11-07T22:36:15.780Z,19.05
2022-11-07T22:38:42.831Z,13.77
2022-11-07T22:41:17.436Z,10.93
2022-11-07T22:43:44.280Z,10.93
2022-11-07T22:46:16.845Z,10.27
2022-11-07T22:48:44.631Z,13.98
2022-11-07T22:51:32.323Z,17.10
2022-11-07T22:54:03.667Z,17.55
2022-11-07T22:56:31.081Z,21.20
2022-11-07T22:58:58.205Z,24.27
2022-11-07T23:01:31.578Z,20.40
2022-11-07T23:03:59.255Z,24.65
2022-11-07T23:06:27.639Z,22.90
2022-11-07T23:08:56.642Z,20.05
2022-11-07T23:14:14.308Z,18.60
2022-11-07T23:16:45.108Z,18.20
2022-11-07T23:19:14.025Z,14.57
2022-11-07T23:21:41.768Z,15.00
2022-11-07T23:24:09.117Z,13.70
2022-11-07T23:26:36.089Z,16.25
2022-11-07T23:29:10.026Z,14.73
2022-11-07T23:31:38.664Z,15.63
2022-11-07T23:34:05.209Z,15.52
2022-11-07T23:36:31.806Z,16.92
2022-11-07T23:39:04.617Z,17.27
2022-11-07T23:41:31.420Z,15.43
2022-11-07T23:43:58.970Z,14.00
2022-11-07T23:46:44.188Z,13.00
2022-11-07T23:49:29.407Z,17.40
2022-11-07T23:51:55.932Z,12.15
2022-11-07T23:54:40.992Z,11.88
2022-11-07T23:57:07.459Z,13.55
